Time;durP1;ratioP1;P1;durP2;ratioP2;P2;SDS_P1;SDS_P2;PMS_P1;PMS_P2;Temp;Humidity;BMP_temperature;BMP_pressure;BME280_temperature;BME280_humidity;BME280_pressure;Samples;Min_cycle;Max_cycle;Signal;HPM_P1;HPM_P2
2021/08/17 00:01:11;;;;;;;4.63;2.50;;;14.40;99.90;;;;;;5034787;28;20232;-69
2021/08/17 00:03:37;;;;;;;3.97;2.50;;;14.30;99.90;;;;;;5034236;28;20205;-69
2021/08/17 00:06:08;;;;;;;5.80;2.90;;;14.40;99.90;;;;;;5034418;28;20300;-69
2021/08/17 00:08:34;;;;;;;3.45;2.13;;;14.40;99.90;;;;;;5034595;28;20206;-69
2021/08/17 00:11:01;;;;;;;4.60;2.45;;;14.40;99.90;;;;;;5034614;28;20232;-69
2021/08/17 00:13:28;;;;;;;2.88;2.50;;;14.40;99.90;;;;;;5034566;28;20300;-69
2021/08/17 00:15:55;;;;;;;3.17;2.60;;;14.40;99.90;;;;;;5034213;28;20242;-69
2021/08/17 00:18:22;;;;;;;4.68;2.80;;;14.40;99.90;;;;;;5034423;28;20220;-69
2021/08/17 00:20:49;;;;;;;5.75;3.53;;;14.40;99.90;;;;;;5034077;28;20224;-69
2021/08/17 00:23:17;;;;;;;4.28;3.05;;;14.40;99.90;;;;;;5034380;28;20201;-69
2021/08/17 00:25:44;;;;;;;3.88;2.53;;;14.40;99.90;;;;;;5034222;28;20202;-69
2021/08/17 00:28:12;;;;;;;3.92;3.05;;;14.40;99.90;;;;;;5034325;28;20202;-69
2021/08/17 00:30:39;;;;;;;3.80;2.75;;;14.50;99.90;;;;;;5033967;28;20234;-69
2021/08/17 00:33:06;;;;;;;3.85;2.60;;;14.50;99.90;;;;;;5033953;28;20216;-69
2021/08/17 00:35:35;;;;;;;3.15;2.67;;;14.50;99.90;;;;;;5033972;28;20248;-69
2021/08/17 00:38:02;;;;;;;4.50;2.88;;;14.50;99.90;;;;;;5034027;28;20250;-69
2021/08/17 00:40:30;;;;;;;5.00;3.10;;;14.50;99.90;;;;;;5034145;28;20573;-69
2021/08/17 00:42:57;;;;;;;5.72;3.47;;;14.50;99.90;;;;;;5034045;28;20228;-69
2021/08/17 00:45:26;;;;;;;3.25;2.50;;;14.50;99.90;;;;;;5033621;28;20695;-69
2021/08/17 00:47:54;;;;;;;5.97;3.25;;;14.60;99.90;;;;;;5033825;28;20202;-69
2021/08/17 00:50:20;;;;;;;3.67;2.30;;;14.60;99.90;;;;;;5033813;28;20226;-69
2021/08/17 00:52:49;;;;;;;6.65;3.17;;;14.70;99.90;;;;;;5033722;28;20204;-69
2021/08/17 00:55:16;;;;;;;4.93;2.80;;;14.50;99.90;;;;;;5033657;28;20205;-69
2021/08/17 00:57:45;;;;;;;4.47;2.67;;;14.50;99.90;;;;;;5033761;28;20209;-69
2021/08/17 01:00:13;;;;;;;5.05;2.50;;;14.50;99.90;;;;;;5033648;28;20224;-69
2021/08/17 01:02:41;;;;;;;3.83;3.10;;;14.50;99.90;;;;;;5033893;28;20287;-70
2021/08/17 01:05:10;;;;;;;4.03;2.45;;;14.50;99.90;;;;;;5033529;28;20211;-69
2021/08/17 01:07:37;;;;;;;3.63;2.45;;;14.40;99.90;;;;;;5033685;28;20201;-70
2021/08/17 01:10:04;;;;;;;4.72;2.80;;;14.40;99.90;;;;;;5033658;28;20315;-70
2021/08/17 01:12:31;;;;;;;3.88;2.83;;;14.40;99.90;;;;;;5033693;28;20548;-70
2021/08/17 01:14:59;;;;;;;4.05;3.08;;;14.30;99.90;;;;;;5032572;28;20301;-69
2021/08/17 01:17:26;;;;;;;3.90;2.42;;;14.30;99.90;;;;;;5033249;28;20303;-70
2021/08/17 01:19:53;;;;;;;3.95;2.45;;;14.20;99.90;;;;;;5033127;28;20234;-70
2021/08/17 01:22:21;;;;;;;5.75;2.85;;;14.20;99.90;;;;;;5033590;28;20209;-69
2021/08/17 01:24:47;;;;;;;3.60;2.80;;;14.10;99.90;;;;;;5033331;28;20208;-69
2021/08/17 01:27:16;;;;;;;3.50;2.30;;;14.10;99.90;;;;;;5033472;28;20208;-69
2021/08/17 01:29:43;;;;;;;4.28;2.90;;;14.10;99.90;;;;;;5033404;28;20291;-69
2021/08/17 01:32:12;;;;;;;4.70;2.40;;;14.10;99.90;;;;;;5033441;28;20201;-69
2021/08/17 01:34:39;;;;;;;4.55;3.22;;;14.00;99.90;;;;;;5033421;28;20303;-69
2021/08/17 01:37:06;;;;;;;4.10;3.03;;;14.00;99.90;;;;;;5033077;28;20204;-69
2021/08/17 01:39:33;;;;;;;3.90;2.45;;;14.00;99.90;;;;;;5033077;28;20234;-69
2021/08/17 01:42:00;;;;;;;4.78;2.80;;;14.00;99.90;;;;;;5033416;28;20210;-69
2021/08/17 01:44:28;;;;;;;4.47;2.75;;;13.80;99.90;;;;;;5033257;28;20203;-69
2021/08/17 01:46:57;;;;;;;3.88;2.40;;;13.80;99.90;;;;;;5032834;28;20204;-69
2021/08/17 01:49:24;;;;;;;4.90;2.80;;;13.60;99.90;;;;;;5033298;28;20254;-69
2021/08/17 01:51:51;;;;;;;3.00;2.35;;;13.60;99.90;;;;;;5033327;28;20224;-69
2021/08/17 01:54:19;;;;;;;4.03;2.58;;;13.60;99.90;;;;;;5033127;28;20301;-69
2021/08/17 01:56:46;;;;;;;5.65;3.13;;;13.60;99.90;;;;;;5032735;28;20295;-69
2021/08/17 01:59:14;;;;;;;4.03;2.65;;;13.60;99.90;;;;;;5033039;28;20220;-69
2021/08/17 02:01:42;;;;;;;3.80;2.90;;;13.60;99.90;;;;;;5032859;28;20278;-69
2021/08/17 02:04:09;;;;;;;5.00;3.08;;;13.60;99.90;;;;;;5033139;28;20254;-69
2021/08/17 02:06:39;;;;;;;3.70;2.70;;;13.50;99.90;;;;;;5032985;28;20291;-69
2021/08/17 02:09:06;;;;;;;3.65;2.10;;;13.50;99.90;;;;;;5032961;28;20669;-69
2021/08/17 02:11:33;;;;;;;6.20;3.38;;;13.50;99.90;;;;;;5032888;28;20224;-69
2021/08/17 02:13:59;;;;;;;3.22;2.55;;;13.50;99.90;;;;;;5032778;28;20290;-69
2021/08/17 02:16:26;;;;;;;4.03;2.25;;;13.60;99.90;;;;;;5032665;28;20216;-69
2021/08/17 02:18:54;;;;;;;3.15;2.28;;;13.50;99.90;;;;;;5032917;28;20228;-69
2021/08/17 02:21:21;;;;;;;3.50;2.60;;;13.60;99.90;;;;;;5033059;28;20231;-69
2021/08/17 02:23:48;;;;;;;5.97;2.65;;;13.60;99.90;;;;;;5033048;28;20301;-69
2021/08/17 02:26:15;;;;;;;3.40;2.30;;;13.60;99.90;;;;;;5034757;28;20577;-69
2021/08/17 02:28:42;;;;;;;6.40;2.80;;;13.60;99.90;;;;;;5036569;28;20200;-70
2021/08/17 02:31:08;;;;;;;4.20;2.85;;;13.70;99.90;;;;;;5036486;28;20228;-69
2021/08/17 02:33:35;;;;;;;4.07;2.92;;;13.70;99.90;;;;;;5036458;28;20208;-69
2021/08/17 02:36:03;;;;;;;4.07;2.50;;;13.70;99.90;;;;;;5036135;28;20570;-70
2021/08/17 02:38:30;;;;;;;3.35;2.50;;;13.70;99.90;;;;;;5036248;28;20224;-69
2021/08/17 02:40:57;;;;;;;4.82;2.97;;;13.70;99.90;;;;;;5036050;28;20316;-70
2021/08/17 02:43:24;;;;;;;2.60;1.95;;;13.70;99.90;;;;;;5036265;28;20291;-69
2021/08/17 02:45:52;;;;;;;3.10;2.50;;;13.70;99.90;;;;;;5036111;28;20210;-69
2021/08/17 02:48:19;;;;;;;5.45;3.03;;;13.70;99.90;;;;;;5036186;28;20205;-69
2021/08/17 02:50:46;;;;;;;4.25;2.80;;;13.60;99.90;;;;;;5036071;28;20220;-69
2021/08/17 02:53:15;;;;;;;3.67;2.70;;;13.50;99.90;;;;;;5035819;28;20215;-69
2021/08/17 02:55:42;;;;;;;4.80;2.90;;;13.50;99.90;;;;;;5035645;28;20718;-69
2021/08/17 02:58:09;;;;;;;3.22;2.40;;;13.50;99.90;;;;;;5035882;28;20299;-69
2021/08/17 03:00:36;;;;;;;3.80;2.83;;;13.50;99.90;;;;;;5035664;28;20645;-69
2021/08/17 03:03:04;;;;;;;2.88;2.58;;;13.50;99.90;;;;;;5035679;28;20670;-69
2021/08/17 03:05:30;;;;;;;4.30;2.45;;;13.40;99.90;;;;;;5035624;28;20228;-69
2021/08/17 03:08:00;;;;;;;4.05;2.65;;;13.40;99.90;;;;;;5035770;28;20311;-69
2021/08/17 03:10:29;;;;;;;5.22;2.80;;;13.40;99.90;;;;;;5035715;28;20310;-69
2021/08/17 03:12:56;;;;;;;3.45;2.20;;;13.40;99.90;;;;;;5035748;28;20204;-69
2021/08/17 03:15:24;;;;;;;4.55;2.50;;;13.40;99.90;;;;;;5035500;28;20210;-69
2021/08/17 03:17:51;;;;;;;4.13;2.67;;;13.30;99.90;;;;;;5035544;28;20254;-69
2021/08/17 03:20:19;;;;;;;3.67;2.50;;;13.30;99.90;;;;;;5035431;28;20228;-69
2021/08/17 03:22:46;;;;;;;5.25;2.80;;;13.30;99.90;;;;;;5035514;28;20306;-69
2021/08/17 03:25:14;;;;;;;3.90;2.45;;;13.30;99.90;;;;;;5035336;28;20291;-69
2021/08/17 03:27:42;;;;;;;3.25;1.90;;;13.30;99.90;;;;;;5035632;28;20543;-69
2021/08/17 03:30:12;;;;;;;4.00;2.80;;;13.30;99.90;;;;;;5035338;28;20247;-69
2021/08/17 03:32:39;;;;;;;4.03;2.42;;;13.30;99.90;;;;;;5035130;28;20184;-69
2021/08/17 03:35:07;;;;;;;4.30;2.67;;;13.20;99.90;;;;;;5035156;28;20236;-69
2021/08/17 03:37:34;;;;;;;3.53;2.25;;;13.20;99.90;;;;;;5034388;28;20204;-69
2021/08/17 03:40:01;;;;;;;3.40;2.45;;;13.20;99.90;;;;;;5034904;28;20231;-69
2021/08/17 03:42:29;;;;;;;3.20;2.65;;;13.20;99.90;;;;;;5035396;28;20254;-69
2021/08/17 03:44:58;;;;;;;4.50;2.80;;;13.20;99.90;;;;;;5034947;28;20204;-69
2021/08/17 03:47:25;;;;;;;3.28;2.15;;;13.20;99.90;;;;;;5035020;28;20590;-69
2021/08/17 03:49:52;;;;;;;3.08;2.75;;;13.20;99.90;;;;;;5034689;28;20216;-69
2021/08/17 03:52:19;;;;;;;5.30;2.40;;;13.30;99.90;;;;;;5035014;28;20295;-69
2021/08/17 03:54:46;;;;;;;4.10;3.10;;;13.20;99.90;;;;;;5034849;28;20682;-70
2021/08/17 03:57:12;;;;;;;3.05;2.63;;;13.30;99.90;;;;;;5034768;28;20291;-70
2021/08/17 03:59:39;;;;;;;4.25;3.05;;;13.30;99.90;;;;;;5034690;28;20263;-70
2021/08/17 04:02:08;;;;;;;4.45;2.85;;;13.30;99.90;;;;;;5034744;28;20290;-69
2021/08/17 04:04:34;;;;;;;3.33;2.63;;;13.20;99.90;;;;;;5034843;28;20211;-69
2021/08/17 04:07:01;;;;;;;3.42;2.20;;;13.20;99.90;;;;;;5034542;28;20208;-69
2021/08/17 04:09:28;;;;;;;3.80;2.63;;;13.20;99.90;;;;;;5034716;28;20200;-69
2021/08/17 04:11:55;;;;;;;3.90;2.78;;;13.20;99.90;;;;;;5034697;28;20295;-69
2021/08/17 04:14:22;;;;;;;3.40;2.67;;;13.20;99.90;;;;;;5035024;28;20204;-69
2021/08/17 04:16:48;;;;;;;8.52;4.70;;;13.20;99.90;;;;;;5034099;28;20376;-69
2021/08/17 04:19:17;;;;;;;5.25;3.88;;;13.20;99.90;;;;;;5034366;28;20314;-69
2021/08/17 04:21:43;;;;;;;3.08;2.65;;;13.20;99.90;;;;;;5034401;28;20230;-69
2021/08/17 04:24:10;;;;;;;7.80;4.72;;;13.20;99.90;;;;;;5034200;28;20208;-69
2021/08/17 04:26:37;;;;;;;7.45;4.63;;;13.20;99.90;;;;;;5034161;28;20200;-69
2021/08/17 04:29:04;;;;;;;4.18;2.97;;;13.20;99.90;;;;;;5034329;28;20613;-69
2021/08/17 04:31:31;;;;;;;4.68;2.90;;;13.20;99.90;;;;;;5033927;28;20736;-69
2021/08/17 04:33:58;;;;;;;5.85;2.85;;;13.20;99.90;;;;;;5034254;28;20218;-69
2021/08/17 04:36:26;;;;;;;6.50;2.53;;;13.20;99.90;;;;;;5034054;28;20299;-69
2021/08/17 04:38:55;;;;;;;3.38;2.40;;;13.20;99.90;;;;;;5034377;28;20218;-69
2021/08/17 04:41:22;;;;;;;5.88;2.92;;;13.20;99.90;;;;;;5034040;28;20274;-69
2021/08/17 04:43:49;;;;;;;3.80;3.10;;;13.20;99.90;;;;;;5034053;28;20295;-69
2021/08/17 04:46:16;;;;;;;4.38;2.95;;;13.20;99.90;;;;;;5033831;28;20210;-69
2021/08/17 04:48:43;;;;;;;3.90;2.83;;;13.10;99.90;;;;;;5033646;28;20208;-69
2021/08/17 04:51:10;;;;;;;6.43;3.28;;;13.20;99.90;;;;;;5033940;28;20227;-69
2021/08/17 04:53:38;;;;;;;5.05;2.95;;;13.10;99.90;;;;;;5033876;28;20291;-69
2021/08/17 04:56:06;;;;;;;10.93;6.15;;;13.20;99.90;;;;;;5033353;28;20203;-69
2021/08/17 04:58:33;;;;;;;8.25;5.40;;;13.20;99.90;;;;;;5033854;28;20211;-69
2021/08/17 05:01:00;;;;;;;3.30;2.47;;;13.20;99.90;;;;;;5034060;28;20594;-69
2021/08/17 05:03:27;;;;;;;4.70;3.03;;;13.20;99.90;;;;;;5033736;28;20299;-69
2021/08/17 05:05:56;;;;;;;5.22;3.42;;;13.30;99.90;;;;;;5033391;28;20316;-69
2021/08/17 05:08:23;;;;;;;4.50;2.33;;;13.30;99.90;;;;;;5033714;28;20210;-69
2021/08/17 05:10:51;;;;;;;3.85;2.53;;;13.30;99.90;;;;;;5033329;28;20310;-69
2021/08/17 05:13:18;;;;;;;4.63;2.70;;;13.20;99.90;;;;;;5033634;28;20295;-69
2021/08/17 05:15:45;;;;;;;4.10;2.83;;;13.20;99.90;;;;;;5033154;28;20212;-70
2021/08/17 05:18:11;;;;;;;3.42;2.42;;;13.20;99.90;;;;;;5033428;28;20219;-69
2021/08/17 05:20:38;;;;;;;4.32;2.50;;;13.20;99.90;;;;;;5033282;28;20227;-69
2021/08/17 05:23:05;;;;;;;4.35;3.30;;;13.20;99.90;;;;;;5033577;28;20210;-69
2021/08/17 05:25:32;;;;;;;4.68;2.88;;;13.20;99.90;;;;;;5033196;28;20291;-69
2021/08/17 05:28:00;;;;;;;4.00;2.75;;;13.20;99.90;;;;;;5033177;28;20678;-69
2021/08/17 05:30:27;;;;;;;3.75;2.78;;;13.20;99.90;;;;;;5033161;28;20303;-69
2021/08/17 05:32:54;;;;;;;3.33;2.67;;;13.30;99.90;;;;;;5033493;28;20208;-69
2021/08/17 05:35:22;;;;;;;5.78;3.22;;;13.30;99.90;;;;;;5033257;28;20624;-69
2021/08/17 05:37:48;;;;;;;4.95;3.03;;;13.30;99.90;;;;;;5033292;28;20254;-69
2021/08/17 05:40:15;;;;;;;3.90;2.83;;;13.30;99.90;;;;;;5033257;28;20239;-69
2021/08/17 05:42:42;;;;;;;9.93;6.00;;;13.30;99.90;;;;;;5033315;28;20295;-69
2021/08/17 05:45:12;;;;;;;4.25;3.00;;;13.30;99.90;;;;;;5033149;28;20200;-69
2021/08/17 05:47:44;;;;;;;4.18;2.58;;;13.30;99.90;;;;;;5033322;28;20208;-69
2021/08/17 05:50:13;;;;;;;5.05;2.92;;;13.40;99.90;;;;;;5033132;28;20277;-69
2021/08/17 05:52:39;;;;;;;7.30;5.40;;;13.40;99.90;;;;;;5033274;28;20299;-69
2021/08/17 05:55:08;;;;;;;7.80;6.18;;;13.40;99.90;;;;;;5033008;28;20291;-69
2021/08/17 05:57:41;;;;;;;6.55;4.07;;;13.50;99.90;;;;;;5033217;28;20291;-69
2021/08/17 06:00:13;;;;;;;3.15;2.70;;;13.50;99.90;;;;;;5033471;28;20242;-69
2021/08/17 06:02:40;;;;;;;4.22;2.83;;;13.50;99.90;;;;;;5037237;28;20197;-69
2021/08/17 06:05:07;;;;;;;4.38;2.30;;;13.50;99.90;;;;;;5036833;28;20597;-69
2021/08/17 06:07:34;;;;;;;4.03;2.42;;;13.50;99.90;;;;;;5036814;28;20204;-69
2021/08/17 06:10:01;;;;;;;7.97;3.30;;;13.50;99.90;;;;;;5036798;28;20216;-69
2021/08/17 06:12:28;;;;;;;4.13;2.90;;;13.50;99.90;;;;;;5036624;28;20666;-69
2021/08/17 06:14:54;;;;;;;5.65;3.25;;;13.50;99.90;;;;;;5036676;28;20211;-70
2021/08/17 06:17:23;;;;;;;3.55;2.53;;;13.50;99.90;;;;;;5036484;28;20232;-69
2021/08/17 06:19:50;;;;;;;5.28;2.70;;;13.50;99.90;;;;;;5036606;28;20236;-69
2021/08/17 06:22:16;;;;;;;4.22;2.38;;;13.50;99.90;;;;;;5036779;28;20206;-69
2021/08/17 06:24:43;;;;;;;4.07;2.85;;;13.50;99.90;;;;;;5036685;28;20597;-70
2021/08/17 06:27:10;;;;;;;7.72;3.13;;;13.50;99.90;;;;;;5036635;28;20299;-69
2021/08/17 06:29:37;;;;;;;3.50;3.17;;;13.60;99.90;;;;;;5036513;28;20204;-69
2021/08/17 06:32:04;;;;;;;3.17;2.45;;;13.60;99.90;;;;;;5036248;28;20200;-70
2021/08/17 06:34:34;;;;;;;4.60;3.03;;;13.70;99.90;;;;;;5036494;28;20290;-70
2021/08/17 06:37:01;;;;;;;3.58;2.50;;;13.70;99.90;;;;;;5036478;28;20204;-69
2021/08/17 06:39:28;;;;;;;4.80;3.35;;;13.80;99.90;;;;;;5036137;28;20240;-70
2021/08/17 06:41:55;;;;;;;5.80;2.80;;;13.80;99.90;;;;;;5036428;28;20387;-70
2021/08/17 06:44:22;;;;;;;4.80;3.60;;;13.80;99.90;;;;;;5036312;28;20242;-70
2021/08/17 06:46:48;;;;;;;5.15;2.90;;;13.80;99.90;;;;;;5035947;28;20300;-70
2021/08/17 06:49:15;;;;;;;3.80;2.80;;;13.80;99.90;;;;;;5036259;28;20397;-70
2021/08/17 06:51:43;;;;;;;6.30;4.47;;;13.90;99.90;;;;;;5035851;28;20621;-69
2021/08/17 06:54:10;;;;;;;5.47;3.42;;;13.90;99.90;;;;;;5035974;28;20205;-69
2021/08/17 06:56:37;;;;;;;4.50;3.42;;;14.00;99.90;;;;;;5035900;28;20204;-69
2021/08/17 06:59:04;;;;;;;5.50;3.40;;;14.10;99.90;;;;;;5035928;28;20300;-69
2021/08/17 07:01:31;;;;;;;4.18;2.83;;;14.10;99.90;;;;;;5036047;28;20229;-69
2021/08/17 07:03:58;;;;;;;5.00;3.30;;;14.20;99.90;;;;;;5035829;28;20296;-69
2021/08/17 07:06:27;;;;;;;5.40;3.25;;;14.20;99.90;;;;;;5035579;28;20660;-69
2021/08/17 07:08:55;;;;;;;4.93;3.03;;;14.30;99.90;;;;;;5035859;28;20213;-69
2021/08/17 07:11:22;;;;;;;8.35;5.10;;;14.30;99.90;;;;;;5034926;28;20225;-69
2021/08/17 07:13:49;;;;;;;9.43;6.35;;;14.30;99.90;;;;;;5035239;28;20313;-69
2021/08/17 07:16:16;;;;;;;5.15;3.65;;;14.30;99.90;;;;;;5035407;28;20216;-69
2021/08/17 07:18:43;;;;;;;5.57;3.65;;;14.30;99.90;;;;;;5035715;28;20620;-69
2021/08/17 07:21:10;;;;;;;4.25;3.08;;;14.40;99.90;;;;;;5035233;28;20274;-69
2021/08/17 07:23:36;;;;;;;4.55;2.90;;;14.40;99.90;;;;;;5035370;28;20574;-69
2021/08/17 07:26:05;;;;;;;4.85;3.33;;;14.40;99.90;;;;;;5035188;28;20210;-69
2021/08/17 07:28:32;;;;;;;6.07;3.22;;;14.40;99.90;;;;;;5035489;28;20568;-69
2021/08/17 07:30:59;;;;;;;5.35;2.95;;;14.40;99.90;;;;;;5035155;28;20224;-69
2021/08/17 07:33:25;;;;;;;6.03;4.15;;;14.50;99.90;;;;;;5035371;28;20212;-69
2021/08/17 07:35:52;;;;;;;4.95;3.22;;;14.60;99.90;;;;;;5035043;28;20207;-69
2021/08/17 07:38:19;;;;;;;4.07;2.60;;;14.70;99.90;;;;;;5035314;28;20297;-69
2021/08/17 07:40:46;;;;;;;7.10;4.20;;;14.80;99.90;;;;;;5034897;28;20229;-70
2021/08/17 07:43:15;;;;;;;5.15;2.60;;;14.90;99.90;;;;;;5034928;28;20207;-69
2021/08/17 07:45:42;;;;;;;4.47;3.22;;;15.00;99.90;;;;;;5034994;28;20581;-69
2021/08/17 07:48:10;;;;;;;4.25;3.15;;;15.00;99.90;;;;;;5035115;28;20313;-69
2021/08/17 07:50:39;;;;;;;5.07;3.35;;;15.20;99.90;;;;;;5034807;28;20218;-69
2021/08/17 07:53:07;;;;;;;6.65;3.92;;;15.30;99.90;;;;;;5035046;28;20211;-69
2021/08/17 07:55:34;;;;;;;3.85;3.08;;;15.40;99.90;;;;;;5034708;28;20673;-69
2021/08/17 07:58:01;;;;;;;3.85;2.92;;;15.50;99.90;;;;;;5034886;28;20214;-69
2021/08/17 08:00:29;;;;;;;4.65;3.00;;;15.60;99.90;;;;;;5034621;28;20322;-69
2021/08/17 08:02:56;;;;;;;6.20;3.50;;;15.60;99.90;;;;;;5034896;28;20580;-69
2021/08/17 08:05:23;;;;;;;5.03;3.05;;;15.60;99.90;;;;;;5034593;28;20627;-69
2021/08/17 08:07:50;;;;;;;3.70;2.65;;;15.60;99.90;;;;;;5034626;28;20291;-69
2021/08/17 08:10:16;;;;;;;5.15;3.45;;;15.80;99.90;;;;;;5034670;28;20315;-69
2021/08/17 08:12:43;;;;;;;4.30;2.97;;;15.80;99.90;;;;;;5034626;28;20207;-69
2021/08/17 08:15:12;;;;;;;3.85;2.85;;;15.90;99.90;;;;;;5034383;28;20216;-69
2021/08/17 08:17:40;;;;;;;6.20;3.42;;;16.10;99.90;;;;;;5034513;28;20219;-69
2021/08/17 08:20:08;;;;;;;4.30;3.13;;;16.30;99.90;;;;;;5034358;28;20227;-69
2021/08/17 08:22:35;;;;;;;4.05;2.67;;;16.60;99.90;;;;;;5033975;28;20666;-69
2021/08/17 08:25:02;;;;;;;4.40;3.28;;;16.90;99.90;;;;;;5034120;28;20216;-69
2021/08/17 08:27:29;;;;;;;4.32;3.55;;;16.90;99.90;;;;;;5034423;28;20573;-69
2021/08/17 08:29:56;;;;;;;3.60;2.63;;;16.80;99.90;;;;;;5034269;28;20315;-69
2021/08/17 08:32:23;;;;;;;3.90;3.15;;;16.80;99.30;;;;;;5034382;28;20290;-69
2021/08/17 08:34:51;;;;;;;5.45;3.40;;;16.60;99.90;;;;;;5034004;28;20207;-69
2021/08/17 08:37:18;;;;;;;4.22;3.20;;;16.70;99.90;;;;;;5034265;28;20199;-69
2021/08/17 08:39:45;;;;;;;6.53;3.30;;;16.90;99.90;;;;;;5033869;28;20683;-69
2021/08/17 08:42:12;;;;;;;6.57;3.40;;;17.00;99.90;;;;;;5033814;28;20773;-69
2021/08/17 08:44:39;;;;;;;4.97;3.28;;;17.00;99.90;;;;;;5034087;28;20295;-69
2021/08/17 08:47:06;;;;;;;4.97;3.08;;;17.10;99.90;;;;;;5033781;28;20212;-69
2021/08/17 08:49:34;;;;;;;3.75;2.92;;;17.20;99.90;;;;;;5033889;28;20678;-69
2021/08/17 08:52:02;;;;;;;3.67;3.00;;;17.30;99.20;;;;;;5034107;28;20204;-69
2021/08/17 08:54:29;;;;;;;4.50;3.15;;;17.40;99.90;;;;;;5033768;28;20295;-69
2021/08/17 08:56:56;;;;;;;4.32;3.50;;;17.50;99.40;;;;;;5033725;28;20294;-69
2021/08/17 08:59:23;;;;;;;3.70;3.10;;;17.40;98.30;;;;;;5033746;28;20284;-69
2021/08/17 09:01:50;;;;;;;5.15;3.40;;;17.40;98.90;;;;;;5033746;28;20230;-69
2021/08/17 09:04:18;;;;;;;5.55;3.33;;;17.40;98.80;;;;;;5033729;28;20204;-69
2021/08/17 09:06:53;;;;;;;4.30;3.00;;;17.90;99.90;;;;;;5033614;28;20206;-69
2021/08/17 09:09:21;;;;;;;3.43;2.80;;;19.00;98.60;;;;;;5033757;28;20448;-70
2021/08/17 09:11:49;;;;;;;5.53;3.10;;;19.90;95.20;;;;;;5033974;28;20467;-70
2021/08/17 09:14:18;;;;;;;4.70;3.20;;;21.50;91.80;;;;;;5033573;28;20941;-70
2021/08/17 09:16:46;;;;;;;4.27;3.30;;;22.60;85.30;;;;;;5033070;28;20455;-70
2021/08/17 09:19:24;;;;;;;5.80;2.67;;;23.30;78.10;;;;;;5033627;28;20470;-70
2021/08/17 09:21:52;;;;;;;4.00;2.60;;;24.30;72.10;;;;;;5033486;28;20852;-70
2021/08/17 09:24:22;;;;;;;3.23;2.93;;;25.00;69.70;;;;;;5033594;28;20439;-70
2021/08/17 09:26:50;;;;;;;3.93;2.87;;;25.30;64.70;;;;;;5033279;28;20947;-70
2021/08/17 09:29:30;;;;;;;3.37;3.03;;;24.60;61.20;;;;;;5033514;28;20851;-70
2021/08/17 09:31:59;;;;;;;4.47;3.60;;;24.10;65.00;;;;;;5033263;28;20907;-70
2021/08/17 09:34:32;;;;;;;4.17;2.60;;;23.60;72.30;;;;;;5033336;28;20451;-70
2021/08/17 09:37:04;;;;;;;3.37;2.77;;;23.40;68.30;;;;;;5036941;28;20993;-69
2021/08/17 09:39:37;;;;;;;3.47;2.77;;;22.70;68.60;;;;;;5037513;28;20519;-70
2021/08/17 09:42:09;;;;;;;3.43;3.07;;;22.60;67.60;;;;;;5037279;28;20471;-69
2021/08/17 09:44:35;;;;;;;3.03;2.27;;;22.40;68.90;;;;;;5037435;28;20446;-69
2021/08/17 09:47:05;;;;;;;3.63;2.90;;;21.60;64.60;;;;;;5037207;28;20532;-69
2021/08/17 09:49:34;;;;;;;2.40;2.20;;;21.00;70.80;;;;;;5037411;28;20452;-69
2021/08/17 09:52:10;;;;;;;3.90;2.83;;;21.20;68.50;;;;;;5036972;28;20479;-69
2021/08/17 09:54:40;;;;;;;2.23;2.03;;;21.10;66.80;;;;;;5037267;28;20544;-69
2021/08/17 09:57:08;;;;;;;2.80;2.37;;;20.90;65.90;;;;;;5036897;28;20453;-69
2021/08/17 09:59:37;;;;;;;3.70;2.67;;;20.50;67.20;;;;;;5037045;28;20532;-69
2021/08/17 10:02:06;;;;;;;4.90;2.50;;;20.20;69.10;;;;;;5036872;28;20476;-69
2021/08/17 10:04:33;;;;;;;3.40;2.53;;;19.90;68.00;;;;;;5037029;28;20442;-69
2021/08/17 10:07:02;;;;;;;3.90;2.67;;;19.60;69.20;;;;;;5036854;28;20440;-69
2021/08/17 10:09:31;;;;;;;3.30;2.47;;;19.50;72.00;;;;;;5036999;28;20454;-69
2021/08/17 10:12:00;;;;;;;3.57;2.40;;;19.40;74.70;;;;;;5037007;28;20448;-69
2021/08/17 10:14:27;;;;;;;4.13;3.10;;;19.30;75.60;;;;;;5036934;28;20810;-69
2021/08/17 10:16:54;;;;;;;3.03;2.40;;;19.20;74.10;;;;;;5036416;28;20555;-69
2021/08/17 10:19:26;;;;;;;3.58;2.65;;;19.20;75.30;;;;;;5036833;28;20440;-70
2021/08/17 10:21:55;;;;;;;5.32;3.10;;;19.10;74.20;;;;;;5036726;28;20229;-69
2021/08/17 10:24:31;;;;;;;3.42;2.58;;;18.90;72.90;;;;;;5036592;28;20306;-69
2021/08/17 10:27:26;;;;;;;4.47;2.50;;;18.60;76.60;;;;;;5036457;28;20725;-69
2021/08/17 10:29:58;;;;;;;3.45;2.50;;;18.30;84.80;;;;;;5036599;28;20466;-69
2021/08/17 10:32:42;;;;;;;7.22;2.67;;;18.10;87.80;;;;;;5036422;28;20627;-69
2021/08/17 10:35:54;;;;;;;3.42;2.70;;;18.10;78.60;;;;;;5036223;28;20300;-70
2021/08/17 10:38:52;;;;;;;3.38;2.70;;;18.20;81.60;;;;;;5036199;28;20201;-69
2021/08/17 10:41:33;;;;;;;3.07;2.30;;;18.80;80.30;;;;;;5036374;28;20587;-69
2021/08/17 10:44:19;;;;;;;3.40;2.50;;;19.30;77.50;;;;;;5036268;28;20449;-69
2021/08/17 10:46:52;;;;;;;3.30;2.67;;;20.00;75.30;;;;;;5035849;28;20449;-70
2021/08/17 10:49:48;;;;;;;2.63;2.20;;;21.20;71.80;;;;;;5036192;28;20442;-70
2021/08/17 10:52:36;;;;;;;3.17;2.40;;;21.50;71.20;;;;;;5036321;28;20427;-70
2021/08/17 10:55:28;;;;;;;3.20;2.27;;;21.70;67.50;;;;;;5035999;28;20449;-70
2021/08/17 10:57:57;;;;;;;2.80;2.37;;;22.50;74.20;;;;;;5036142;28;20799;-70
2021/08/17 11:00:49;;;;;;;3.10;2.20;;;23.80;71.50;;;;;;5035945;28;20896;-70
2021/08/17 11:03:47;;;;;;;3.00;2.40;;;25.00;60.10;;;;;;5035979;28;20530;-70
2021/08/17 11:06:37;;;;;;;3.93;2.87;;;26.00;59.50;;;;;;5035692;28;21000;-70
2021/08/17 11:09:05;;;;;;;4.43;3.80;;;26.60;54.50;;;;;;5035774;28;20450;-70
2021/08/17 11:11:31;;;;;;;3.60;3.30;;;25.90;58.90;;;;;;5035570;28;20973;-70
2021/08/17 11:14:10;;;;;;;4.63;2.97;;;25.20;57.40;;;;;;5035740;28;20442;-70
2021/08/17 11:16:47;;;;;;;3.87;3.30;;;24.20;58.20;;;;;;5035407;28;20552;-70
2021/08/17 11:19:15;;;;;;;3.40;2.77;;;23.70;65.20;;;;;;5035673;28;20472;-70
2021/08/17 11:21:44;;;;;;;2.70;2.47;;;23.50;62.60;;;;;;5035466;28;20489;-70
2021/08/17 11:24:19;;;;;;;3.00;2.27;;;22.70;60.20;;;;;;5035597;28;20441;-70
2021/08/17 11:26:50;;;;;;;2.90;2.60;;;22.10;58.20;;;;;;5035436;28;20435;-70
2021/08/17 11:29:29;;;;;;;4.00;2.47;;;21.70;60.70;;;;;;5035414;28;20983;-70
2021/08/17 11:31:59;;;;;;;2.77;2.10;;;21.50;63.70;;;;;;5035129;28;20977;-70
2021/08/17 11:34:28;;;;;;;2.80;2.30;;;21.50;64.80;;;;;;5035409;28;20530;-70
2021/08/17 11:37:01;;;;;;;3.13;2.33;;;21.40;64.10;;;;;;5035201;28;20443;-70
2021/08/17 11:39:31;;;;;;;3.20;2.37;;;21.50;62.70;;;;;;5035284;28;20469;-70
2021/08/17 11:41:58;;;;;;;2.07;1.93;;;21.50;68.30;;;;;;5035266;28;20501;-69
2021/08/17 11:44:27;;;;;;;2.37;1.87;;;21.40;62.00;;;;;;5035084;28;20446;-70
2021/08/17 11:47:09;;;;;;;2.83;1.90;;;21.40;64.10;;;;;;5034746;28;20458;-70
2021/08/17 11:49:37;;;;;;;2.60;2.27;;;21.50;60.00;;;;;;5035058;28;20446;-69
2021/08/17 11:52:10;;;;;;;2.10;1.90;;;21.60;63.00;;;;;;5034770;28;20501;-70
2021/08/17 11:54:43;;;;;;;2.23;2.03;;;21.60;62.90;;;;;;5034931;28;20447;-70
2021/08/17 11:57:10;;;;;;;3.17;1.90;;;21.70;64.70;;;;;;5034820;28;20495;-70
2021/08/17 11:59:47;;;;;;;1.93;1.80;;;21.60;60.90;;;;;;5033821;28;20438;-70
2021/08/17 12:02:24;;;;;;;2.70;2.33;;;21.40;59.60;;;;;;5034885;28;20480;-70
2021/08/17 12:04:54;;;;;;;1.80;1.60;;;21.30;59.20;;;;;;5034609;28;20956;-70
2021/08/17 12:07:21;;;;;;;3.30;2.80;;;21.30;61.40;;;;;;5034706;28;20450;-70
2021/08/17 12:09:49;;;;;;;3.23;2.30;;;21.20;62.50;;;;;;5034609;28;20482;-69
2021/08/17 12:12:21;;;;;;;2.57;2.27;;;21.20;62.00;;;;;;5034771;28;20446;-69
2021/08/17 12:15:08;;;;;;;2.30;1.80;;;21.10;60.90;;;;;;5034332;28;20533;-70
2021/08/17 12:17:36;;;;;;;2.60;2.13;;;21.30;62.70;;;;;;5034309;28;20466;-70
2021/08/17 12:20:06;;;;;;;2.70;2.03;;;21.20;62.70;;;;;;5034428;28;20976;-70
2021/08/17 12:22:33;;;;;;;2.60;2.20;;;21.20;61.50;;;;;;5034462;28;20554;-70
2021/08/17 12:25:00;;;;;;;2.13;1.90;;;21.40;63.60;;;;;;5034230;28;20443;-69
2021/08/17 12:27:29;;;;;;;2.03;1.83;;;21.50;61.40;;;;;;5034432;28;20530;-70
2021/08/17 12:29:58;;;;;;;2.30;2.07;;;21.60;59.20;;;;;;5034166;28;20469;-70
2021/08/17 12:32:29;;;;;;;3.10;1.83;;;21.30;59.00;;;;;;5034327;28;20812;-70
2021/08/17 12:35:06;;;;;;;2.53;2.33;;;21.40;60.90;;;;;;5034137;28;20450;-70
2021/08/17 12:37:37;;;;;;;3.00;2.03;;;21.20;58.50;;;;;;5034096;28;20954;-70
2021/08/17 12:40:07;;;;;;;2.43;2.23;;;21.30;62.60;;;;;;5034000;28;20512;-70
2021/08/17 12:42:41;;;;;;;3.17;2.50;;;21.40;64.60;;;;;;5033812;28;20845;-69
2021/08/17 12:45:13;;;;;;;3.73;2.47;;;21.70;63.00;;;;;;5033897;28;20924;-70
2021/08/17 12:47:40;;;;;;;2.60;2.10;;;21.80;61.00;;;;;;5034073;28;20453;-70
2021/08/17 12:50:09;;;;;;;3.03;2.30;;;22.00;59.90;;;;;;5033941;28;20478;-70
2021/08/17 12:52:42;;;;;;;2.13;1.93;;;22.00;59.90;;;;;;5033762;28;20442;-70
2021/08/17 12:55:11;;;;;;;3.20;2.30;;;22.00;60.70;;;;;;5033760;28;20450;-70
2021/08/17 12:57:39;;;;;;;3.03;2.70;;;22.10;60.30;;;;;;5033900;28;20447;-70